createdAt,value
2023-01-31T00:01:38.606Z,101529.13
2023-01-31T00:04:12.739Z,101516.50
2023-01-31T00:06:42.873Z,101520.38
2023-01-31T00:09:14.879Z,101517.66
2023-01-31T00:11:41.919Z,101534.84
2023-01-31T00:14:10.766Z,101524.91
2023-01-31T00:16:38.285Z,101522.22
2023-01-31T00:19:05.551Z,101524.41
2023-01-31T00:21:33.222Z,101521.69
2023-01-31T00:24:00.861Z,101533.00
2023-01-31T00:26:30.976Z,101533.16
2023-01-31T00:29:00.003Z,101529.28
2023-01-31T00:31:28.798Z,101532.47
2023-01-31T00:33:56.909Z,101531.13
2023-01-31T00:36:30.342Z,101534.66
2023-01-31T00:39:02.888Z,101541.22
2023-01-31T00:41:31.275Z,101530.81
2023-01-31T00:43:58.979Z,101550.34
2023-01-31T00:46:27.092Z,101556.22
2023-01-31T00:48:55.949Z,101565.97
2023-01-31T00:51:26.397Z,101561.63
2023-01-31T00:53:53.706Z,101562.44
2023-01-31T00:56:26.953Z,101566.63
2023-01-31T00:58:54.357Z,101561.06
2023-01-31T01:01:24.380Z,101558.22
2023-01-31T01:03:51.404Z,101556.81
2023-01-31T01:06:21.257Z,101568.09
2023-01-31T01:08:48.339Z,101566.44
2023-01-31T01:11:23.452Z,101572.84
2023-01-31T01:13:50.912Z,101566.81
2023-01-31T01:16:31.875Z,101564.78
2023-01-31T01:18:59.093Z,101563.28
2023-01-31T01:21:29.403Z,101558.75
2023-01-31T01:23:59.479Z,101548.63
2023-01-31T01:26:29.178Z,101564.47
2023-01-31T01:28:58.807Z,101558.75
2023-01-31T01:31:30.561Z,101551.00
2023-01-31T01:34:04.104Z,101564.50
2023-01-31T01:36:34.787Z,101562.47
2023-01-31T01:39:02.734Z,101556.06
2023-01-31T01:41:33.678Z,101551.69
2023-01-31T01:44:02.643Z,101555.88
2023-01-31T01:46:33.470Z,101562.28
2023-01-31T01:49:19.686Z,101549.31
2023-01-31T01:51:51.201Z,101551.50
2023-01-31T01:54:23.658Z,101562.78
2023-01-31T01:56:56.574Z,101563.13
2023-01-31T01:59:29.238Z,101554.88
2023-01-31T02:01:57.377Z,101563.13
2023-01-31T02:04:31.011Z,101581.66
2023-01-31T02:07:00.578Z,101589.75
2023-01-31T02:09:46.820Z,101587.72
2023-01-31T02:12:13.885Z,101587.41
2023-01-31T02:14:42.600Z,101584.53
2023-01-31T02:17:14.331Z,101581.31
2023-01-31T02:19:53.273Z,101585.38
2023-01-31T02:22:36.968Z,101588.38
2023-01-31T02:25:31.723Z,101573.91
2023-01-31T02:28:18.907Z,101576.78
2023-01-31T02:31:10.956Z,101574.56
2023-01-31T02:33:44.428Z,101567.00
2023-01-31T02:36:30.271Z,101559.44
2023-01-31T02:39:29.716Z,101565.47
2023-01-31T02:42:16.140Z,101572.56
2023-01-31T02:45:02.154Z,101575.41
2023-01-31T02:47:48.845Z,101575.28
2023-01-31T02:50:40.458Z,101567.34
2023-01-31T02:53:15.658Z,101572.56
2023-01-31T02:56:15.185Z,101584.19
2023-01-31T02:58:47.555Z,101586.69
2023-01-31T03:01:21.041Z,101592.41
2023-01-31T03:03:48.391Z,101591.03
2023-01-31T03:06:23.492Z,101579.91
2023-01-31T03:09:02.817Z,101581.09
2023-01-31T03:12:14.813Z,101574.53
2023-01-31T03:15:05.983Z,101570.31
2023-01-31T03:17:38.620Z,101568.09
2023-01-31T03:20:26.466Z,101572.78
2023-01-31T03:23:08.520Z,101569.06
2023-01-31T03:25:38.453Z,101565.53
2023-01-31T03:28:11.659Z,101561.66
2023-01-31T03:31:17.557Z,101577.44
2023-01-31T03:33:48.748Z,101572.78
2023-01-31T03:36:29.820Z,101568.09
2023-01-31T03:39:05.734Z,101567.41
2023-01-31T03:41:43.374Z,101560.72
2023-01-31T03:44:21.362Z,101563.59
2023-01-31T03:46:52.942Z,101555.34
2023-01-31T03:49:25.525Z,101564.28
2023-01-31T03:51:58.697Z,101555.69
2023-01-31T03:54:29.966Z,101556.72
2023-01-31T03:57:01.354Z,101559.06
2023-01-31T03:59:33.149Z,101558.41
2023-01-31T04:02:03.955Z,101546.59
2023-01-31T04:04:57.952Z,101555.19
2023-01-31T04:07:25.303Z,101557.22
2023-01-31T04:09:52.348Z,101548.63
2023-01-31T04:12:19.217Z,101553.03
2023-01-31T04:14:46.444Z,101554.03
2023-01-31T04:17:13.662Z,101545.97
2023-01-31T04:19:40.620Z,101529.97
2023-01-31T04:22:07.600Z,101538.72
2023-01-31T04:24:36.101Z,101540.06
2023-01-31T04:27:03.098Z,101534.31
2023-01-31T04:29:30.073Z,101538.03
2023-01-31T04:31:56.997Z,101540.91
2023-01-31T04:34:24.094Z,101554.91
2023-01-31T04:36:51.021Z,101546.63
2023-01-31T04:39:17.899Z,101553.38
2023-01-31T04:41:44.746Z,101553.72
2023-01-31T04:44:12.407Z,101555.38
2023-01-31T04:46:39.542Z,101558.75
2023-01-31T04:49:06.492Z,101558.56
2023-01-31T04:51:33.489Z,101561.97
2023-01-31T04:54:00.625Z,101556.41
2023-01-31T04:56:27.651Z,101554.03
2023-01-31T04:58:54.492Z,101554.38
2023-01-31T05:01:21.495Z,101550.34
2023-01-31T05:03:48.521Z,101551.34
2023-01-31T05:06:15.490Z,101549.66
2023-01-31T05:08:42.648Z,101549.84
2023-01-31T05:11:10.031Z,101545.28
2023-01-31T05:13:39.896Z,101543.59
2023-01-31T05:16:11.497Z,101545.44
2023-01-31T05:18:39.455Z,101546.63
2023-01-31T05:21:08.399Z,101541.91
2023-01-31T05:23:36.145Z,101537.53
2023-01-31T05:26:03.916Z,101528.25
2023-01-31T05:28:33.699Z,101541.38
2023-01-31T05:31:08.309Z,101537.03
2023-01-31T05:33:38.877Z,101529.94
2023-01-31T05:36:06.136Z,101515.97
2023-01-31T05:38:33.473Z,101516.13
2023-01-31T05:41:00.736Z,101508.38
2023-01-31T05:43:27.663Z,101499.47
2023-01-31T05:45:54.639Z,101504.50
2023-01-31T05:48:21.924Z,101506.19
2023-01-31T05:50:50.648Z,101495.06
2023-01-31T05:53:19.120Z,101496.75
2023-01-31T05:55:45.927Z,101497.59
2023-01-31T05:58:13.025Z,101485.63
2023-01-31T06:00:39.872Z,101487.97
2023-01-31T06:03:06.774Z,101485.94
2023-01-31T06:05:34.338Z,101481.94
2023-01-31T06:08:01.230Z,101474.00
2023-01-31T06:10:28.376Z,101479.06
2023-01-31T06:12:55.348Z,101480.75
2023-01-31T06:15:22.710Z,101473.81
2023-01-31T06:17:49.659Z,101472.97
2023-01-31T06:20:17.379Z,101469.25
2023-01-31T06:22:47.088Z,101469.09
2023-01-31T06:25:14.158Z,101458.97
2023-01-31T06:27:41.056Z,101464.34
2023-01-31T06:30:13.833Z,101454.41
2023-01-31T06:32:41.006Z,101454.25
2023-01-31T06:35:08.256Z,101449.69
2023-01-31T06:37:35.326Z,101445.78
2023-01-31T06:40:02.262Z,101445.78
2023-01-31T06:42:29.336Z,101453.00
2023-01-31T06:44:56.432Z,101438.03
2023-01-31T06:47:24.080Z,101423.53
2023-01-31T06:49:54.511Z,101428.56
2023-01-31T06:52:21.417Z,101421.50
2023-01-31T06:54:48.391Z,101422.34
2023-01-31T06:57:15.283Z,101417.13
2023-01-31T06:59:42.231Z,101415.75
2023-01-31T07:02:10.675Z,101414.75
2023-01-31T07:04:37.849Z,101410.84
2023-01-31T07:07:05.091Z,101403.25
2023-01-31T07:09:32.309Z,101398.88
2023-01-31T07:11:59.314Z,101392.16
2023-01-31T07:14:26.409Z,101390.59
2023-01-31T07:16:56.466Z,101377.28
2023-01-31T07:19:23.618Z,101381.97
2023-01-31T07:21:51.273Z,101386.34
2023-01-31T07:24:18.258Z,101372.84
2023-01-31T07:26:45.353Z,101361.75
2023-01-31T07:29:12.514Z,101358.16
2023-01-31T07:31:39.992Z,101346.03
2023-01-31T07:34:06.903Z,101338.94
2023-01-31T07:36:33.866Z,101334.88
2023-01-31T07:39:02.114Z,101331.97
2023-01-31T07:41:29.510Z,101330.28
2023-01-31T07:43:58.375Z,101341.38
2023-01-31T07:46:25.385Z,101337.69
2023-01-31T07:48:53.462Z,101330.78
2023-01-31T07:51:20.470Z,101334.75
2023-01-31T07:53:47.796Z,101333.06
2023-01-31T07:56:17.278Z,101324.25
2023-01-31T07:58:46.125Z,101333.56
2023-01-31T08:01:42.424Z,101315.59
2023-01-31T08:04:21.177Z,101310.88
2023-01-31T08:06:51.370Z,101309.06
2023-01-31T08:09:18.381Z,101312.88
2023-01-31T08:11:45.281Z,101323.69
2023-01-31T08:14:12.121Z,101307.78
2023-01-31T08:16:40.072Z,101301.75
2023-01-31T08:19:06.936Z,101303.34
2023-01-31T08:21:33.956Z,101283.78
2023-01-31T08:24:07.001Z,101289.47
2023-01-31T08:26:34.416Z,101287.06
2023-01-31T08:29:01.974Z,101284.94
2023-01-31T08:31:29.650Z,101277.94
2023-01-31T08:34:00.237Z,101273.56
2023-01-31T08:36:31.992Z,101267.53
2023-01-31T08:38:59.775Z,101259.44
2023-01-31T08:41:28.078Z,101256.72
2023-01-31T08:43:57.876Z,101260.81
2023-01-31T08:46:32.491Z,101253.47
2023-01-31T08:49:04.490Z,101250.13
2023-01-31T08:51:32.503Z,101251.41
2023-01-31T08:53:59.684Z,101243.78
2023-01-31T08:56:28.196Z,101241.44
2023-01-31T08:58:55.463Z,101238.59
2023-01-31T09:01:23.348Z,101225.63
2023-01-31T09:03:58.325Z,101211.75
2023-01-31T09:06:27.833Z,101209.44
2023-01-31T09:08:58.817Z,101199.94
2023-01-31T09:11:28.825Z,101197.03
2023-01-31T09:13:59.537Z,101187.72
2023-01-31T09:16:26.509Z,101193.88
2023-01-31T09:18:54.306Z,101184.75
2023-01-31T09:21:22.229Z,101182.53
2023-01-31T09:23:54.287Z,101178.53
2023-01-31T09:26:21.257Z,101177.31
2023-01-31T09:28:49.515Z,101184.19
2023-01-31T09:31:18.938Z,101171.13
2023-01-31T09:33:46.197Z,101178.69
2023-01-31T09:36:22.748Z,101172.81
2023-01-31T09:38:55.913Z,101166.13
2023-01-31T09:41:34.227Z,101163.22
2023-01-31T09:44:38.619Z,101155.13
2023-01-31T09:47:28.739Z,101142.75
2023-01-31T09:50:01.794Z,101147.94
2023-01-31T09:52:31.985Z,101147.81
2023-01-31T09:54:59.997Z,101140.00
2023-01-31T09:57:51.877Z,101135.34
2023-01-31T10:00:26.437Z,101134.78
2023-01-31T10:03:02.169Z,101136.53
2023-01-31T10:05:48.585Z,101118.63
2023-01-31T10:08:34.364Z,101120.31
2023-01-31T10:11:06.855Z,101109.50
2023-01-31T10:13:37.056Z,101119.91
2023-01-31T10:16:25.455Z,101111.66
2023-01-31T10:19:00.145Z,101107.13
2023-01-31T10:21:36.988Z,101102.75
2023-01-31T10:24:32.643Z,101100.50
2023-01-31T10:27:16.619Z,101095.88
2023-01-31T10:29:47.875Z,101093.41
2023-01-31T10:32:44.586Z,101090.47
2023-01-31T10:35:36.018Z,101075.31
2023-01-31T10:38:17.265Z,101085.72
2023-01-31T10:40:49.126Z,101071.19
2023-01-31T10:43:30.145Z,101075.16
2023-01-31T10:46:01.614Z,101075.16
2023-01-31T10:48:29.842Z,101061.00
2023-01-31T10:51:34.163Z,101051.50
2023-01-31T10:54:19.788Z,101057.66
2023-01-31T10:56:48.639Z,101054.63
2023-01-31T10:59:18.131Z,101042.41
2023-01-31T11:01:45.263Z,101037.81
2023-01-31T11:04:51.713Z,101052.41
2023-01-31T11:07:20.113Z,101052.50
2023-01-31T11:09:54.726Z,101056.06
2023-01-31T11:12:39.160Z,101058.78
2023-01-31T11:15:16.142Z,101050.88
2023-01-31T11:17:45.411Z,101048.59
2023-01-31T11:20:44.724Z,101043.66
2023-01-31T11:23:17.346Z,101040.94
2023-01-31T11:25:51.787Z,101035.16
2023-01-31T11:28:39.864Z,101027.47
2023-01-31T11:31:16.100Z,101034.34
2023-01-31T11:33:47.974Z,101028.53
2023-01-31T11:36:26.849Z,101014.81
2023-01-31T11:38:55.299Z,101011.06
2023-01-31T11:41:37.840Z,101016.28
2023-01-31T11:44:25.102Z,101017.34
2023-01-31T11:46:55.848Z,101010.69
2023-01-31T11:49:43.124Z,101013.00
2023-01-31T11:52:22.679Z,101013.19
2023-01-31T11:54:55.349Z,100997.78
2023-01-31T11:57:29.431Z,100981.19
2023-01-31T11:59:59.969Z,101003.84
2023-01-31T12:02:33.761Z,100998.66
2023-01-31T12:05:02.633Z,100997.88
2023-01-31T12:07:57.569Z,100984.72
2023-01-31T12:10:41.617Z,101000.16
2023-01-31T12:13:29.171Z,100992.88
2023-01-31T12:16:02.352Z,100982.28
2023-01-31T12:18:29.290Z,100981.88
2023-01-31T12:21:07.922Z,100977.88
2023-01-31T12:23:44.646Z,100968.72
2023-01-31T12:26:22.595Z,100988.56
2023-01-31T12:29:11.930Z,100977.28
2023-01-31T12:32:10.027Z,100969.19
2023-01-31T12:35:14.985Z,66592.41
2023-01-31T12:38:06.944Z,66592.41
2023-01-31T12:40:56.831Z,66592.41
2023-01-31T12:43:23.574Z,100972.78
2023-01-31T12:46:10.070Z,100953.47
2023-01-31T12:48:55.975Z,100951.81
2023-01-31T12:51:36.078Z,100942.22
2023-01-31T12:54:21.528Z,100924.97
2023-01-31T12:57:07.631Z,100925.41
2023-01-31T12:59:52.950Z,100924.78
2023-01-31T13:02:32.123Z,100914.78
2023-01-31T13:05:22.189Z,100936.44
2023-01-31T13:07:56.189Z,100929.56
2023-01-31T13:10:35.408Z,100925.63
2023-01-31T13:13:05.109Z,100922.72
2023-01-31T13:15:47.957Z,100917.78
2023-01-31T13:18:15.869Z,100908.19
2023-01-31T13:20:48.974Z,100908.16
2023-01-31T13:23:34.361Z,100888.56
2023-01-31T13:26:13.210Z,100891.06
2023-01-31T13:28:57.406Z,100882.94
2023-01-31T13:31:45.192Z,100891.09
2023-01-31T13:34:31.933Z,100883.16
2023-01-31T13:37:03.175Z,100880.22
2023-01-31T13:39:43.430Z,100885.03
2023-01-31T13:42:15.785Z,100890.66
2023-01-31T13:44:43.812Z,100877.28
2023-01-31T13:47:21.305Z,100868.50
2023-01-31T13:50:30.362Z,100871.00
2023-01-31T13:53:02.361Z,100870.16
2023-01-31T13:55:40.378Z,100859.53
2023-01-31T13:58:22.936Z,100863.28
2023-01-31T14:01:04.857Z,100868.53
2023-01-31T14:03:31.804Z,100872.25
2023-01-31T14:06:00.986Z,100875.59
2023-01-31T14:08:58.470Z,100874.34
2023-01-31T14:11:26.026Z,100859.75
2023-01-31T14:14:38.937Z,100873.94
2023-01-31T14:17:09.335Z,100860.19
2023-01-31T14:19:47.936Z,100858.75
2023-01-31T14:22:22.301Z,100862.50
2023-01-31T14:24:56.943Z,100855.44
2023-01-31T14:27:28.899Z,100835.81
2023-01-31T14:30:09.381Z,100847.09
2023-01-31T14:32:45.075Z,100855.44
2023-01-31T14:35:14.691Z,100858.53
2023-01-31T14:37:58.994Z,100867.31
2023-01-31T14:40:28.470Z,100856.06
2023-01-31T14:43:17.406Z,100858.13
2023-01-31T14:45:56.129Z,100851.66
2023-01-31T14:49:02.738Z,100857.31
2023-01-31T14:51:53.261Z,100844.78
2023-01-31T14:54:35.129Z,100836.44
2023-01-31T14:57:16.106Z,100857.72
2023-01-31T14:59:46.563Z,100852.72
2023-01-31T15:02:32.296Z,100868.97
2023-01-31T15:05:13.346Z,100865.41
2023-01-31T15:07:58.820Z,100864.81
2023-01-31T15:10:58.413Z,100872.31
2023-01-31T15:13:50.456Z,100865.63
2023-01-31T15:16:30.000Z,100870.63
2023-01-31T15:20:01.772Z,100863.56
2023-01-31T15:22:31.034Z,100868.56
2023-01-31T15:25:12.472Z,100867.72
2023-01-31T15:27:43.355Z,100870.22
2023-01-31T15:30:22.443Z,100856.03
2023-01-31T15:33:02.676Z,100873.78
2023-01-31T15:35:34.522Z,100862.50
2023-01-31T15:38:06.588Z,100873.16
2023-01-31T15:40:33.792Z,100872.31
2023-01-31T15:43:23.291Z,100862.31
2023-01-31T15:45:54.046Z,100854.38
2023-01-31T15:48:22.480Z,100848.13
2023-01-31T15:50:53.025Z,100854.38
2023-01-31T15:53:23.819Z,100855.22
2023-01-31T15:55:52.695Z,100850.84
2023-01-31T15:58:22.705Z,100858.97
2023-01-31T16:00:54.206Z,100949.44
2023-01-31T16:03:30.007Z,100962.50
2023-01-31T16:05:59.644Z,100964.34
2023-01-31T16:08:35.641Z,100938.00
2023-01-31T16:11:08.511Z,100927.09
2023-01-31T16:13:41.320Z,100902.28
2023-01-31T16:16:14.507Z,100907.25
2023-01-31T16:18:50.336Z,100896.72
2023-01-31T16:21:30.966Z,100906.25
2023-01-31T16:24:15.223Z,100914.09
2023-01-31T16:27:09.695Z,100922.34
2023-01-31T16:29:43.837Z,100917.56
2023-01-31T16:32:22.700Z,100904.41
2023-01-31T16:35:03.570Z,100893.25
2023-01-31T16:37:36.722Z,100905.28
2023-01-31T16:40:19.957Z,100898.19
2023-01-31T16:42:47.679Z,100906.94
2023-01-31T16:45:34.687Z,100921.97
2023-01-31T16:48:22.373Z,100912.88
2023-01-31T16:50:54.373Z,100915.03
2023-01-31T16:53:28.196Z,100927.63
2023-01-31T16:56:13.634Z,100928.75
2023-01-31T17:00:28.070Z,100929.75
2023-01-31T17:02:57.479Z,100912.94
2023-01-31T17:05:31.764Z,100919.56
2023-01-31T17:07:59.640Z,100922.44
2023-01-31T17:10:29.452Z,100926.03
2023-01-31T17:13:11.328Z,100930.78
2023-01-31T17:15:38.104Z,100944.28
2023-01-31T17:18:09.876Z,100947.19
2023-01-31T17:20:40.378Z,100932.47
2023-01-31T17:23:07.248Z,100945.38
2023-01-31T17:25:39.974Z,100943.50
2023-01-31T17:28:09.759Z,100952.84
2023-01-31T17:30:45.381Z,100949.94
2023-01-31T17:33:13.795Z,100965.78
2023-01-31T17:35:43.957Z,100966.34
2023-01-31T17:38:11.149Z,100959.47
2023-01-31T17:40:40.794Z,100954.06
2023-01-31T17:43:08.249Z,100953.44
2023-01-31T17:45:35.160Z,100946.75
2023-01-31T17:48:02.004Z,100944.03
2023-01-31T17:50:29.600Z,100950.66
2023-01-31T17:52:57.385Z,100965.16
2023-01-31T17:55:25.804Z,100974.94
2023-01-31T17:57:55.961Z,100975.97
2023-01-31T18:00:23.014Z,100969.28
2023-01-31T18:02:51.938Z,100959.91
2023-01-31T18:05:33.553Z,100944.59
2023-01-31T18:08:05.605Z,100941.66
2023-01-31T18:10:32.422Z,100936.50
2023-01-31T18:12:59.264Z,100936.53
2023-01-31T18:15:26.081Z,100939.53
2023-01-31T18:17:56.115Z,100913.59
2023-01-31T18:20:23.406Z,100918.84
2023-01-31T18:22:50.468Z,100940.50
2023-01-31T18:25:20.847Z,100951.31
2023-01-31T18:27:47.858Z,100953.38
2023-01-31T18:30:14.823Z,100953.38
2023-01-31T18:32:41.691Z,100968.38
2023-01-31T18:35:08.741Z,100958.41
2023-01-31T18:37:36.226Z,100966.13
2023-01-31T18:40:03.222Z,100953.44
2023-01-31T18:42:30.216Z,100966.34
2023-01-31T18:44:57.276Z,100974.09
2023-01-31T18:47:24.042Z,100975.94
2023-01-31T18:49:50.815Z,100969.75
2023-01-31T18:52:17.728Z,100971.44
2023-01-31T18:54:45.646Z,100980.56
2023-01-31T18:57:12.517Z,100965.91
2023-01-31T18:59:39.304Z,100965.38
2023-01-31T19:02:06.390Z,100957.03
2023-01-31T19:04:36.590Z,100957.94
2023-01-31T19:07:04.713Z,100972.69
2023-01-31T19:09:31.738Z,100966.47
2023-01-31T19:11:58.860Z,100966.25
2023-01-31T19:14:25.664Z,100973.47
2023-01-31T19:16:54.812Z,100983.91
2023-01-31T19:19:22.061Z,100981.56
2023-01-31T19:21:48.927Z,100977.00
2023-01-31T19:24:17.108Z,100986.44
2023-01-31T19:26:44.455Z,100979.81
2023-01-31T19:29:14.943Z,100978.59
2023-01-31T19:31:42.117Z,100986.50
2023-01-31T19:34:09.354Z,100985.47
2023-01-31T19:36:38.995Z,100991.28
2023-01-31T19:39:08.467Z,100980.47
2023-01-31T19:41:39.273Z,100977.38
2023-01-31T19:44:06.213Z,100989.44
2023-01-31T19:46:38.144Z,101004.63
2023-01-31T19:49:06.479Z,100996.34
2023-01-31T19:51:33.917Z,100999.19
2023-01-31T19:54:02.761Z,100993.91
2023-01-31T19:56:30.480Z,100988.44
2023-01-31T19:58:57.400Z,100988.44
2023-01-31T20:01:25.135Z,100997.97
2023-01-31T20:03:54.324Z,100988.44
2023-01-31T20:06:25.937Z,100991.16
2023-01-31T20:08:54.866Z,100994.94
2023-01-31T20:11:22.386Z,100988.94
2023-01-31T20:13:51.406Z,100996.47
2023-01-31T20:16:19.555Z,101000.66
2023-01-31T20:18:49.591Z,100993.19
2023-01-31T20:21:18.807Z,100995.97
2023-01-31T20:23:46.354Z,101003.81
2023-01-31T20:26:14.268Z,100992.34
2023-01-31T20:28:42.481Z,100997.31
2023-01-31T20:31:12.320Z,101004.97
2023-01-31T20:33:39.192Z,100998.97
2023-01-31T20:36:06.644Z,100995.72
2023-01-31T20:38:33.520Z,101011.06
2023-01-31T20:41:00.577Z,101005.63
2023-01-31T20:43:27.821Z,101014.63
2023-01-31T20:46:06.358Z,101005.75
2023-01-31T20:48:38.569Z,101017.53
2023-01-31T20:51:11.802Z,101011.34
2023-01-31T20:53:39.295Z,101001.78
2023-01-31T20:56:12.375Z,101007.53
2023-01-31T20:58:41.897Z,100990.78
2023-01-31T21:01:10.856Z,100987.81
2023-01-31T21:03:37.964Z,100982.78
2023-01-31T21:06:05.625Z,100990.88
2023-01-31T21:08:33.383Z,100984.47
2023-01-31T21:11:03.755Z,100984.25
2023-01-31T21:13:31.785Z,100989.28
2023-01-31T21:16:02.079Z,100994.09
2023-01-31T21:18:31.016Z,100985.22
2023-01-31T21:20:58.261Z,100983.03
2023-01-31T21:23:25.975Z,100974.13
2023-01-31T21:25:52.836Z,100976.88
2023-01-31T21:28:21.071Z,100976.47
2023-01-31T21:31:03.866Z,100973.19
2023-01-31T21:33:31.276Z,100983.19
2023-01-31T21:36:00.647Z,100974.00
2023-01-31T21:38:30.472Z,100981.09
2023-01-31T21:41:19.446Z,100969.84
2023-01-31T21:43:46.561Z,100980.84
2023-01-31T21:46:15.198Z,100988.94
2023-01-31T21:48:42.622Z,100988.66
2023-01-31T21:51:14.689Z,100978.03
2023-01-31T21:53:42.136Z,100991.66
2023-01-31T21:56:20.651Z,100981.25
2023-01-31T21:58:48.626Z,100985.84
2023-01-31T22:01:20.063Z,100977.47
2023-01-31T22:03:49.627Z,100980.28
2023-01-31T22:06:21.735Z,100985.94
2023-01-31T22:08:57.382Z,100987.69
2023-01-31T22:11:26.183Z,100986.91
2023-01-31T22:13:56.831Z,100979.31
2023-01-31T22:16:24.224Z,100979.78
2023-01-31T22:18:57.258Z,100980.41
2023-01-31T22:21:26.837Z,100975.25
2023-01-31T22:23:56.412Z,100964.06
2023-01-31T22:26:33.451Z,100962.59
2023-01-31T22:29:02.491Z,100973.00
2023-01-31T22:31:29.977Z,100973.44
2023-01-31T22:34:03.947Z,100983.22
2023-01-31T22:36:31.132Z,100987.00
2023-01-31T22:38:58.260Z,100985.72
2023-01-31T22:41:25.378Z,100987.41
2023-01-31T22:43:53.361Z,100983.19
2023-01-31T22:46:26.534Z,100979.38
2023-01-31T22:48:56.797Z,100987.22
2023-01-31T22:51:26.364Z,100990.53
2023-01-31T22:53:55.416Z,100994.63
2023-01-31T22:56:24.919Z,100990.88
2023-01-31T22:58:59.878Z,100993.38
2023-01-31T23:01:30.280Z,100986.09
2023-01-31T23:03:58.997Z,100980.78
2023-01-31T23:06:28.139Z,100973.66
2023-01-31T23:08:55.567Z,100973.03
2023-01-31T23:11:23.787Z,100974.88
2023-01-31T23:13:51.407Z,100972.31
2023-01-31T23:16:43.768Z,100982.25
2023-01-31T23:19:11.589Z,100972.31
2023-01-31T23:21:42.997Z,100968.97
2023-01-31T23:24:11.463Z,100979.31
2023-01-31T23:26:38.544Z,100981.44
2023-01-31T23:29:05.567Z,100972.31
2023-01-31T23:31:32.830Z,100964.06
2023-01-31T23:34:00.877Z,100967.03
2023-01-31T23:36:28.404Z,100974.31
2023-01-31T23:38:55.341Z,100960.09
2023-01-31T23:41:22.178Z,100969.28
2023-01-31T23:43:49.561Z,100966.22
2023-01-31T23:46:16.580Z,100967.03
2023-01-31T23:48:44.908Z,100979.97
2023-01-31T23:51:12.104Z,100958.22
2023-01-31T23:53:39.036Z,100956.44
2023-01-31T23:56:06.868Z,100954.75
2023-01-31T23:58:34.074Z,100942.28
